sensor_id;sensor_type;location;lat;lon;timestamp;pressure;altitude;pressure_sealevel;temperature;humidity
38285;BME280;24088;42.664;23.354;2022-12-18T00:00:58;95782.41;;;7.70;100.00
38285;BME280;24088;42.664;23.354;2022-12-18T00:02:00;95795.06;;;7.93;100.00
38285;BME280;24088;42.664;23.354;2022-12-18T00:03:00;95786.75;;;7.75;100.00
38285;BME280;24088;42.664;23.354;2022-12-18T00:04:04;95784.75;;;7.68;100.00
38285;BME280;24088;42.664;23.354;2022-12-18T00:05:05;95790.16;;;7.54;100.00
38285;BME280;24088;42.664;23.354;2022-12-18T00:06:07;95793.69;;;7.62;100.00
38285;BME280;24088;42.664;23.354;2022-12-18T00:07:08;95801.56;;;7.19;100.00
38285;BME280;24088;42.664;23.354;2022-12-18T00:08:10;95807.03;;;7.15;100.00
38285;BME280;24088;42.664;23.354;2022-12-18T00:09:10;95806.69;;;7.20;100.00
38285;BME280;24088;42.664;23.354;2022-12-18T00:10:11;95803.97;;;7.24;100.00
38285;BME280;24088;42.664;23.354;2022-12-18T00:11:13;95811.69;;;7.15;100.00
38285;BME280;24088;42.664;23.354;2022-12-18T00:12:14;95801.13;;;7.10;100.00
38285;BME280;24088;42.664;23.354;2022-12-18T00:13:17;95808.03;;;6.96;100.00
38285;BME280;24088;42.664;23.354;2022-12-18T00:14:18;95806.50;;;6.99;100.00
38285;BME280;24088;42.664;23.354;2022-12-18T00:15:19;95808.88;;;7.04;100.00
38285;BME280;24088;42.664;23.354;2022-12-18T00:16:21;95817.81;;;7.01;100.00
38285;BME280;24088;42.664;23.354;2022-12-18T00:17:22;95806.47;;;6.95;100.00
38285;BME280;24088;42.664;23.354;2022-12-18T00:18:23;95811.09;;;6.91;100.00
38285;BME280;24088;42.664;23.354;2022-12-18T00:19:25;95804.81;;;6.87;100.00
38285;BME280;24088;42.664;23.354;2022-12-18T00:20:27;95811.84;;;6.88;100.00
38285;BME280;24088;42.664;23.354;2022-12-18T00:21:28;95806.78;;;6.87;100.00
38285;BME280;24088;42.664;23.354;2022-12-18T00:22:29;95814.63;;;6.92;100.00
38285;BME280;24088;42.664;23.354;2022-12-18T00:23:30;95810.69;;;6.89;100.00
38285;BME280;24088;42.664;23.354;2022-12-18T00:24:31;95802.09;;;6.87;100.00
38285;BME280;24088;42.664;23.354;2022-12-18T00:25:32;95816.13;;;6.86;100.00
38285;BME280;24088;42.664;23.354;2022-12-18T00:26:34;95823.53;;;6.85;100.00
38285;BME280;24088;42.664;23.354;2022-12-18T00:27:34;95827.75;;;6.79;100.00
38285;BME280;24088;42.664;23.354;2022-12-18T00:28:36;95827.44;;;6.88;100.00
38285;BME280;24088;42.664;23.354;2022-12-18T00:29:36;95824.59;;;7.18;100.00
38285;BME280;24088;42.664;23.354;2022-12-18T00:30:38;95822.88;;;6.99;100.00
38285;BME280;24088;42.664;23.354;2022-12-18T00:31:38;95813.47;;;6.96;100.00
38285;BME280;24088;42.664;23.354;2022-12-18T00:32:40;95822.47;;;6.97;100.00
38285;BME280;24088;42.664;23.354;2022-12-18T00:33:41;95826.44;;;7.03;100.00
38285;BME280;24088;42.664;23.354;2022-12-18T00:34:44;95834.38;;;7.22;100.00
38285;BME280;24088;42.664;23.354;2022-12-18T00:35:44;95830.72;;;7.04;100.00
38285;BME280;24088;42.664;23.354;2022-12-18T00:36:46;95834.16;;;6.94;100.00
38285;BME280;24088;42.664;23.354;2022-12-18T00:37:47;95832.50;;;6.89;100.00
38285;BME280;24088;42.664;23.354;2022-12-18T00:38:49;95830.91;;;6.85;100.00
38285;BME280;24088;42.664;23.354;2022-12-18T00:39:49;95833.59;;;6.77;100.00
38285;BME280;24088;42.664;23.354;2022-12-18T00:40:51;95831.50;;;7.05;100.00
38285;BME280;24088;42.664;23.354;2022-12-18T00:41:51;95835.94;;;7.20;100.00
38285;BME280;24088;42.664;23.354;2022-12-18T00:43:10;95836.66;;;7.13;100.00
38285;BME280;24088;42.664;23.354;2022-12-18T00:44:12;95839.09;;;6.81;100.00
38285;BME280;24088;42.664;23.354;2022-12-18T00:45:13;95833.19;;;6.79;100.00
38285;BME280;24088;42.664;23.354;2022-12-18T00:46:15;95839.44;;;6.80;100.00
38285;BME280;24088;42.664;23.354;2022-12-18T00:47:15;95843.34;;;7.23;100.00
38285;BME280;24088;42.664;23.354;2022-12-18T00:48:16;95843.47;;;6.93;100.00
38285;BME280;24088;42.664;23.354;2022-12-18T00:49:18;95832.84;;;6.84;100.00
38285;BME280;24088;42.664;23.354;2022-12-18T00:50:21;95828.81;;;6.71;100.00
38285;BME280;24088;42.664;23.354;2022-12-18T00:51:21;95836.97;;;6.67;100.00
38285;BME280;24088;42.664;23.354;2022-12-18T00:52:23;95840.81;;;6.63;100.00
38285;BME280;24088;42.664;23.354;2022-12-18T00:53:24;95844.38;;;6.67;100.00
38285;BME280;24088;42.664;23.354;2022-12-18T00:54:25;95843.94;;;6.61;100.00
38285;BME280;24088;42.664;23.354;2022-12-18T00:55:26;95847.00;;;6.56;100.00
38285;BME280;24088;42.664;23.354;2022-12-18T00:56:27;95844.91;;;6.80;100.00
38285;BME280;24088;42.664;23.354;2022-12-18T00:57:28;95849.84;;;6.67;100.00
38285;BME280;24088;42.664;23.354;2022-12-18T00:58:29;95851.38;;;6.64;100.00
38285;BME280;24088;42.664;23.354;2022-12-18T00:59:30;95847.94;;;6.71;100.00
38285;BME280;24088;42.664;23.354;2022-12-18T01:00:31;95845.53;;;6.66;100.00
38285;BME280;24088;42.664;23.354;2022-12-18T01:01:32;95852.22;;;6.68;100.00
38285;BME280;24088;42.664;23.354;2022-12-18T01:02:33;95852.22;;;6.72;100.00
38285;BME280;24088;42.664;23.354;2022-12-18T01:03:34;95856.13;;;6.71;100.00
38285;BME280;24088;42.664;23.354;2022-12-18T01:04:35;95847.06;;;7.00;100.00
38285;BME280;24088;42.664;23.354;2022-12-18T01:05:40;95846.41;;;6.73;100.00
38285;BME280;24088;42.664;23.354;2022-12-18T01:06:40;95856.03;;;7.01;100.00
38285;BME280;24088;42.664;23.354;2022-12-18T01:07:42;95858.81;;;6.67;100.00
38285;BME280;24088;42.664;23.354;2022-12-18T01:08:42;95857.28;;;6.70;100.00
38285;BME280;24088;42.664;23.354;2022-12-18T01:09:44;95860.75;;;6.67;100.00
38285;BME280;24088;42.664;23.354;2022-12-18T01:10:44;95861.59;;;7.12;100.00
38285;BME280;24088;42.664;23.354;2022-12-18T01:11:46;95865.91;;;6.75;100.00
38285;BME280;24088;42.664;23.354;2022-12-18T01:12:46;95863.88;;;7.02;100.00
38285;BME280;24088;42.664;23.354;2022-12-18T01:13:48;95866.44;;;6.51;100.00
38285;BME280;24088;42.664;23.354;2022-12-18T01:14:48;95872.56;;;6.44;100.00
38285;BME280;24088;42.664;23.354;2022-12-18T01:15:50;95870.31;;;6.50;100.00
38285;BME280;24088;42.664;23.354;2022-12-18T01:16:51;95866.69;;;6.42;100.00
38285;BME280;24088;42.664;23.354;2022-12-18T01:17:52;95864.34;;;6.41;100.00
38285;BME280;24088;42.664;23.354;2022-12-18T01:18:53;95858.13;;;6.40;100.00
38285;BME280;24088;42.664;23.354;2022-12-18T01:19:55;95867.81;;;6.38;100.00
38285;BME280;24088;42.664;23.354;2022-12-18T01:20:57;95877.09;;;6.33;100.00
38285;BME280;24088;42.664;23.354;2022-12-18T01:21:58;95874.53;;;6.77;100.00
38285;BME280;24088;42.664;23.354;2022-12-18T01:22:59;95871.38;;;6.75;100.00
38285;BME280;24088;42.664;23.354;2022-12-18T01:24:00;95862.81;;;6.77;100.00
38285;BME280;24088;42.664;23.354;2022-12-18T01:25:02;95865.03;;;6.64;100.00
38285;BME280;24088;42.664;23.354;2022-12-18T01:26:06;95871.53;;;6.22;100.00
38285;BME280;24088;42.664;23.354;2022-12-18T01:27:08;95869.97;;;6.21;100.00
38285;BME280;24088;42.664;23.354;2022-12-18T01:28:09;95868.69;;;6.45;100.00
38285;BME280;24088;42.664;23.354;2022-12-18T01:29:11;95866.38;;;6.47;100.00
38285;BME280;24088;42.664;23.354;2022-12-18T01:30:11;95870.59;;;6.11;100.00
38285;BME280;24088;42.664;23.354;2022-12-18T01:31:14;95871.34;;;6.08;100.00
38285;BME280;24088;42.664;23.354;2022-12-18T01:32:15;95874.47;;;6.10;100.00
38285;BME280;24088;42.664;23.354;2022-12-18T01:33:16;95874.88;;;6.12;100.00
38285;BME280;24088;42.664;23.354;2022-12-18T01:34:17;95885.97;;;5.96;100.00
38285;BME280;24088;42.664;23.354;2022-12-18T01:35:19;95874.75;;;6.01;100.00
38285;BME280;24088;42.664;23.354;2022-12-18T01:36:21;95880.22;;;6.01;100.00
38285;BME280;24088;42.664;23.354;2022-12-18T01:37:23;95878.72;;;6.38;100.00
38285;BME280;24088;42.664;23.354;2022-12-18T01:38:23;95886.59;;;6.43;100.00
38285;BME280;24088;42.664;23.354;2022-12-18T01:39:25;95878.41;;;6.43;100.00
38285;BME280;24088;42.664;23.354;2022-12-18T01:40:26;95884.66;;;6.13;100.00
38285;BME280;24088;42.664;23.354;2022-12-18T01:41:27;95878.00;;;6.11;100.00
38285;BME280;24088;42.664;23.354;2022-12-18T01:42:49;95882.81;;;5.94;100.00
38285;BME280;24088;42.664;23.354;2022-12-18T01:43:53;95886.88;;;5.81;100.00
38285;BME280;24088;42.664;23.354;2022-12-18T01:44:58;95886.44;;;6.32;100.00
38285;BME280;24088;42.664;23.354;2022-12-18T01:46:00;95880.34;;;6.42;100.00
38285;BME280;24088;42.664;23.354;2022-12-18T01:47:01;95895.56;;;6.13;100.00
38285;BME280;24088;42.664;23.354;2022-12-18T01:48:03;95880.47;;;5.93;100.00
38285;BME280;24088;42.664;23.354;2022-12-18T01:49:05;95891.41;;;6.23;100.00
38285;BME280;24088;42.664;23.354;2022-12-18T01:50:08;95884.00;;;6.23;100.00
38285;BME280;24088;42.664;23.354;2022-12-18T01:51:10;95890.28;;;5.97;100.00
38285;BME280;24088;42.664;23.354;2022-12-18T01:52:14;95880.81;;;5.91;100.00
38285;BME280;24088;42.664;23.354;2022-12-18T01:53:15;95891.22;;;5.86;100.00
38285;BME280;24088;42.664;23.354;2022-12-18T01:54:18;95883.38;;;5.81;100.00
38285;BME280;24088;42.664;23.354;2022-12-18T01:55:19;95900.25;;;5.90;100.00
38285;BME280;24088;42.664;23.354;2022-12-18T01:56:21;95891.28;;;5.89;100.00
38285;BME280;24088;42.664;23.354;2022-12-18T01:57:23;95889.66;;;5.85;100.00
38285;BME280;24088;42.664;23.354;2022-12-18T01:58:27;95896.16;;;5.76;100.00
38285;BME280;24088;42.664;23.354;2022-12-18T01:59:31;95904.34;;;5.76;100.00
38285;BME280;24088;42.664;23.354;2022-12-18T02:00:33;95892.84;;;5.90;100.00
38285;BME280;24088;42.664;23.354;2022-12-18T02:01:34;95898.00;;;5.92;100.00
38285;BME280;24088;42.664;23.354;2022-12-18T02:02:37;95891.69;;;6.14;100.00
38285;BME280;24088;42.664;23.354;2022-12-18T02:03:40;95890.34;;;5.78;100.00
38285;BME280;24088;42.664;23.354;2022-12-18T02:04:41;95889.56;;;5.77;100.00
38285;BME280;24088;42.664;23.354;2022-12-18T02:05:44;95895.78;;;5.78;100.00
38285;BME280;24088;42.664;23.354;2022-12-18T02:06:45;95899.66;;;5.77;100.00
38285;BME280;24088;42.664;23.354;2022-12-18T02:07:51;95890.22;;;6.24;100.00
38285;BME280;24088;42.664;23.354;2022-12-18T02:08:58;95899.19;;;6.24;100.00
38285;BME280;24088;42.664;23.354;2022-12-18T02:10:03;95894.44;;;6.18;100.00
38285;BME280;24088;42.664;23.354;2022-12-18T02:11:07;95894.97;;;6.27;100.00
38285;BME280;24088;42.664;23.354;2022-12-18T02:12:13;95901.41;;;5.89;100.00
38285;BME280;24088;42.664;23.354;2022-12-18T02:13:19;95903.72;;;5.87;100.00
38285;BME280;24088;42.664;23.354;2022-12-18T02:14:22;95898.78;;;6.22;100.00
38285;BME280;24088;42.664;23.354;2022-12-18T02:15:27;95908.38;;;6.39;100.00
38285;BME280;24088;42.664;23.354;2022-12-18T02:16:34;95911.25;;;5.93;100.00
38285;BME280;24088;42.664;23.354;2022-12-18T02:17:40;95912.63;;;5.84;100.00
38285;BME280;24088;42.664;23.354;2022-12-18T02:18:45;95914.25;;;5.88;100.00
38285;BME280;24088;42.664;23.354;2022-12-18T02:19:53;95915.69;;;5.82;100.00
38285;BME280;24088;42.664;23.354;2022-12-18T02:21:00;95914.13;;;5.81;100.00
38285;BME280;24088;42.664;23.354;2022-12-18T02:22:07;95916.91;;;5.85;100.00
38285;BME280;24088;42.664;23.354;2022-12-18T02:23:16;95915.03;;;5.89;100.00
38285;BME280;24088;42.664;23.354;2022-12-18T02:24:25;95920.25;;;5.97;100.00
38285;BME280;24088;42.664;23.354;2022-12-18T02:25:33;95916.75;;;5.97;100.00
38285;BME280;24088;42.664;23.354;2022-12-18T02:26:40;95923.16;;;5.85;100.00
38285;BME280;24088;42.664;23.354;2022-12-18T02:27:44;95923.94;;;5.86;100.00
38285;BME280;24088;42.664;23.354;2022-12-18T02:28:47;95918.16;;;5.91;100.00
38285;BME280;24088;42.664;23.354;2022-12-18T02:29:51;95919.66;;;5.85;100.00
38285;BME280;24088;42.664;23.354;2022-12-18T02:30:53;95921.34;;;5.93;100.00
38285;BME280;24088;42.664;23.354;2022-12-18T02:31:57;95922.75;;;5.83;100.00
38285;BME280;24088;42.664;23.354;2022-12-18T02:32:58;95915.28;;;5.80;100.00
38285;BME280;24088;42.664;23.354;2022-12-18T02:34:02;95917.66;;;5.82;100.00
38285;BME280;24088;42.664;23.354;2022-12-18T02:35:04;95923.03;;;5.78;100.00
38285;BME280;24088;42.664;23.354;2022-12-18T02:36:07;95919.00;;;6.18;100.00
38285;BME280;24088;42.664;23.354;2022-12-18T02:37:09;95924.53;;;6.25;100.00
38285;BME280;24088;42.664;23.354;2022-12-18T02:38:12;95916.88;;;6.34;100.00
38285;BME280;24088;42.664;23.354;2022-12-18T02:39:14;95922.41;;;6.41;100.00
38285;BME280;24088;42.664;23.354;2022-12-18T02:40:17;95925.91;;;6.42;100.00
38285;BME280;24088;42.664;23.354;2022-12-18T02:41:19;95928.38;;;5.94;100.00
38285;BME280;24088;42.664;23.354;2022-12-18T02:42:22;95925.47;;;5.83;100.00
38285;BME280;24088;42.664;23.354;2022-12-18T02:43:23;95924.31;;;5.84;100.00
38285;BME280;24088;42.664;23.354;2022-12-18T02:44:24;95933.16;;;5.77;100.00
38285;BME280;24088;42.664;23.354;2022-12-18T02:45:25;95940.19;;;5.78;100.00
38285;BME280;24088;42.664;23.354;2022-12-18T02:46:31;95936.13;;;6.18;100.00
38285;BME280;24088;42.664;23.354;2022-12-18T02:47:33;95939.06;;;6.06;100.00
38285;BME280;24088;42.664;23.354;2022-12-18T02:48:37;95928.78;;;6.22;100.00
38285;BME280;24088;42.664;23.354;2022-12-18T02:49:40;95925.72;;;6.27;100.00
38285;BME280;24088;42.664;23.354;2022-12-18T02:50:47;95929.94;;;6.21;100.00
38285;BME280;24088;42.664;23.354;2022-12-18T02:51:53;95928.16;;;6.06;100.00
38285;BME280;24088;42.664;23.354;2022-12-18T02:52:59;95935.88;;;6.00;100.00
38285;BME280;24088;42.664;23.354;2022-12-18T02:54:03;95925.56;;;6.13;100.00
38285;BME280;24088;42.664;23.354;2022-12-18T02:55:12;95927.50;;;6.13;100.00
38285;BME280;24088;42.664;23.354;2022-12-18T02:56:17;95929.81;;;5.88;100.00
38285;BME280;24088;42.664;23.354;2022-12-18T02:57:24;95935.53;;;5.79;100.00
38285;BME280;24088;42.664;23.354;2022-12-18T02:58:26;95937.25;;;6.14;100.00
38285;BME280;24088;42.664;23.354;2022-12-18T02:59:32;95945.88;;;6.19;100.00
38285;BME280;24088;42.664;23.354;2022-12-18T03:00:35;95939.81;;;5.80;100.00
38285;BME280;24088;42.664;23.354;2022-12-18T03:01:41;95944.59;;;5.64;100.00
38285;BME280;24088;42.664;23.354;2022-12-18T03:02:44;95940.78;;;5.68;100.00
38285;BME280;24088;42.664;23.354;2022-12-18T03:03:47;95939.09;;;5.60;100.00
38285;BME280;24088;42.664;23.354;2022-12-18T03:04:53;95941.41;;;5.58;100.00
38285;BME280;24088;42.664;23.354;2022-12-18T03:05:57;95945.53;;;5.48;100.00
38285;BME280;24088;42.664;23.354;2022-12-18T03:07:01;95954.06;;;5.47;100.00
38285;BME280;24088;42.664;23.354;2022-12-18T03:08:05;95949.69;;;5.42;100.00
38285;BME280;24088;42.664;23.354;2022-12-18T03:09:07;95943.69;;;6.02;100.00
38285;BME280;24088;42.664;23.354;2022-12-18T03:10:11;95946.59;;;6.16;100.00
38285;BME280;24088;42.664;23.354;2022-12-18T03:11:13;95950.81;;;6.10;100.00
38285;BME280;24088;42.664;23.354;2022-12-18T03:12:16;95946.66;;;6.20;100.00
38285;BME280;24088;42.664;23.354;2022-12-18T03:13:27;95952.50;;;6.18;100.00
38285;BME280;24088;42.664;23.354;2022-12-18T03:14:29;95946.94;;;5.62;100.00
38285;BME280;24088;42.664;23.354;2022-12-18T03:15:31;95953.16;;;5.62;100.00
38285;BME280;24088;42.664;23.354;2022-12-18T03:16:34;95954.06;;;5.47;100.00
38285;BME280;24088;42.664;23.354;2022-12-18T03:17:38;95957.94;;;5.46;100.00
38285;BME280;24088;42.664;23.354;2022-12-18T03:18:41;95952.88;;;5.44;100.00
38285;BME280;24088;42.664;23.354;2022-12-18T03:19:44;95952.91;;;5.48;100.00
38285;BME280;24088;42.664;23.354;2022-12-18T03:20:47;95953.94;;;5.40;100.00
38285;BME280;24088;42.664;23.354;2022-12-18T03:21:51;95950.38;;;5.36;100.00
38285;BME280;24088;42.664;23.354;2022-12-18T03:22:54;95955.69;;;5.74;100.00
38285;BME280;24088;42.664;23.354;2022-12-18T03:23:57;95962.34;;;6.00;100.00
38285;BME280;24088;42.664;23.354;2022-12-18T03:24:58;95953.75;;;5.98;100.00
38285;BME280;24088;42.664;23.354;2022-12-18T03:26:01;95959.19;;;5.98;100.00
38285;BME280;24088;42.664;23.354;2022-12-18T03:27:03;95962.22;;;5.93;100.00
38285;BME280;24088;42.664;23.354;2022-12-18T03:28:06;95964.63;;;5.52;100.00
38285;BME280;24088;42.664;23.354;2022-12-18T03:29:12;95962.13;;;5.40;100.00
38285;BME280;24088;42.664;23.354;2022-12-18T03:30:15;95951.50;;;5.35;100.00
38285;BME280;24088;42.664;23.354;2022-12-18T03:31:16;95958.47;;;5.32;100.00
38285;BME280;24088;42.664;23.354;2022-12-18T03:32:20;95964.41;;;5.38;100.00
38285;BME280;24088;42.664;23.354;2022-12-18T03:33:25;95972.63;;;5.41;100.00
38285;BME280;24088;42.664;23.354;2022-12-18T03:34:28;95968.69;;;5.39;100.00
38285;BME280;24088;42.664;23.354;2022-12-18T03:35:31;95978.63;;;5.27;100.00
38285;BME280;24088;42.664;23.354;2022-12-18T03:36:33;95969.38;;;5.32;100.00
38285;BME280;24088;42.664;23.354;2022-12-18T03:37:34;95971.25;;;5.28;100.00
38285;BME280;24088;42.664;23.354;2022-12-18T03:38:36;95980.13;;;5.25;100.00
38285;BME280;24088;42.664;23.354;2022-12-18T03:39:36;95983.41;;;5.34;100.00
38285;BME280;24088;42.664;23.354;2022-12-18T03:40:41;95982.31;;;5.39;100.00
38285;BME280;24088;42.664;23.354;2022-12-18T03:41:44;95990.66;;;5.72;100.00
38285;BME280;24088;42.664;23.354;2022-12-18T03:42:48;95987.69;;;5.35;100.00
38285;BME280;24088;42.664;23.354;2022-12-18T03:43:50;95988.19;;;5.41;100.00
38285;BME280;24088;42.664;23.354;2022-12-18T03:44:56;95986.97;;;5.38;100.00
38285;BME280;24088;42.664;23.354;2022-12-18T03:45:59;95988.44;;;5.32;100.00
38285;BME280;24088;42.664;23.354;2022-12-18T03:47:04;95998.88;;;5.30;100.00
38285;BME280;24088;42.664;23.354;2022-12-18T03:48:07;95987.69;;;5.35;100.00
38285;BME280;24088;42.664;23.354;2022-12-18T03:49:11;95999.56;;;5.23;100.00
38285;BME280;24088;42.664;23.354;2022-12-18T03:50:15;95988.59;;;5.20;100.00
38285;BME280;24088;42.664;23.354;2022-12-18T03:51:21;95994.44;;;5.22;100.00
38285;BME280;24088;42.664;23.354;2022-12-18T03:52:25;95999.25;;;5.28;100.00
38285;BME280;24088;42.664;23.354;2022-12-18T03:53:31;95998.19;;;5.14;100.00
38285;BME280;24088;42.664;23.354;2022-12-18T03:54:33;96005.06;;;5.08;100.00
38285;BME280;24088;42.664;23.354;2022-12-18T03:55:36;96005.06;;;5.08;100.00
38285;BME280;24088;42.664;23.354;2022-12-18T03:56:38;96014.88;;;5.12;100.00
38285;BME280;24088;42.664;23.354;2022-12-18T03:57:41;96008.25;;;5.10;100.00
38285;BME280;24088;42.664;23.354;2022-12-18T03:58:42;96006.66;;;5.09;100.00
38285;BME280;24088;42.664;23.354;2022-12-18T03:59:45;96014.09;;;5.12;100.00
38285;BME280;24088;42.664;23.354;2022-12-18T04:00:48;96019.03;;;5.25;100.00
38285;BME280;24088;42.664;23.354;2022-12-18T04:01:51;96012.72;;;5.21;100.00
38285;BME280;24088;42.664;23.354;2022-12-18T04:02:54;96013.56;;;5.25;100.00
38285;BME280;24088;42.664;23.354;2022-12-18T04:03:56;96008.06;;;5.22;100.00
38285;BME280;24088;42.664;23.354;2022-12-18T04:04:59;96009.66;;;5.23;100.00
38285;BME280;24088;42.664;23.354;2022-12-18T04:06:03;96006.16;;;5.22;100.00
38285;BME280;24088;42.664;23.354;2022-12-18T04:07:05;96001.13;;;5.24;100.00
38285;BME280;24088;42.664;23.354;2022-12-18T04:08:07;96004.56;;;5.21;100.00
38285;BME280;24088;42.664;23.354;2022-12-18T04:09:08;96012.94;;;5.13;100.00
38285;BME280;24088;42.664;23.354;2022-12-18T04:10:10;96011.31;;;5.08;100.00
38285;BME280;24088;42.664;23.354;2022-12-18T04:11:11;96010.59;;;5.11;100.00
38285;BME280;24088;42.664;23.354;2022-12-18T04:12:13;96009.94;;;5.18;100.00
38285;BME280;24088;42.664;23.354;2022-12-18T04:13:21;96015.38;;;5.18;100.00
38285;BME280;24088;42.664;23.354;2022-12-18T04:14:22;96013.72;;;5.13;100.00
38285;BME280;24088;42.664;23.354;2022-12-18T04:15:23;96013.88;;;5.20;100.00
38285;BME280;24088;42.664;23.354;2022-12-18T04:16:26;96025.63;;;5.24;100.00
38285;BME280;24088;42.664;23.354;2022-12-18T04:17:26;96031.91;;;5.28;100.00
38285;BME280;24088;42.664;23.354;2022-12-18T04:18:28;96031.78;;;5.21;100.00
38285;BME280;24088;42.664;23.354;2022-12-18T04:19:29;96038.81;;;5.22;100.00
38285;BME280;24088;42.664;23.354;2022-12-18T04:20:30;96034.66;;;5.28;100.00
38285;BME280;24088;42.664;23.354;2022-12-18T04:21:31;96032.16;;;5.20;100.00
38285;BME280;24088;42.664;23.354;2022-12-18T04:22:32;96027.97;;;5.26;100.00
38285;BME280;24088;42.664;23.354;2022-12-18T04:23:32;96021.19;;;5.59;100.00
38285;BME280;24088;42.664;23.354;2022-12-18T04:24:34;96037.47;;;5.55;100.00
38285;BME280;24088;42.664;23.354;2022-12-18T04:25:35;96034.88;;;5.62;100.00
38285;BME280;24088;42.664;23.354;2022-12-18T04:26:36;96032.16;;;5.62;100.00
38285;BME280;24088;42.664;23.354;2022-12-18T04:27:36;96030.91;;;5.17;100.00
38285;BME280;24088;42.664;23.354;2022-12-18T04:28:38;96032.16;;;5.20;100.00
38285;BME280;24088;42.664;23.354;2022-12-18T04:29:39;96033.00;;;5.24;100.00
38285;BME280;24088;42.664;23.354;2022-12-18T04:30:40;96037.22;;;5.21;100.00
38285;BME280;24088;42.664;23.354;2022-12-18T04:31:42;96037.09;;;5.14;100.00
38285;BME280;24088;42.664;23.354;2022-12-18T04:32:44;96042.53;;;5.14;100.00
38285;BME280;24088;42.664;23.354;2022-12-18T04:33:44;96040.16;;;5.32;100.00
38285;BME280;24088;42.664;23.354;2022-12-18T04:34:46;96044.66;;;5.44;100.00
38285;BME280;24088;42.664;23.354;2022-12-18T04:35:46;96041.25;;;5.70;100.00
38285;BME280;24088;42.664;23.354;2022-12-18T04:36:48;96037.09;;;5.57;100.00
38285;BME280;24088;42.664;23.354;2022-12-18T04:37:48;96039.88;;;5.60;100.00
38285;BME280;24088;42.664;23.354;2022-12-18T04:38:50;96025.84;;;5.58;100.00
38285;BME280;24088;42.664;23.354;2022-12-18T04:39:51;96038.00;;;5.22;100.00
38285;BME280;24088;42.664;23.354;2022-12-18T04:40:52;96023.97;;;5.62;100.00
38285;BME280;24088;42.664;23.354;2022-12-18T04:41:53;96039.63;;;5.26;100.00
38285;BME280;24088;42.664;23.354;2022-12-18T04:42:54;96054.28;;;4.99;100.00
38285;BME280;24088;42.664;23.354;2022-12-18T04:43:55;96052.97;;;5.12;100.00
38285;BME280;24088;42.664;23.354;2022-12-18T04:44:56;96056.91;;;5.53;100.00
38285;BME280;24088;42.664;23.354;2022-12-18T04:46:01;96058.78;;;5.49;100.00
38285;BME280;24088;42.664;23.354;2022-12-18T04:47:03;96062.03;;;5.59;100.00
38285;BME280;24088;42.664;23.354;2022-12-18T04:48:05;96059.72;;;5.61;100.00
38285;BME280;24088;42.664;23.354;2022-12-18T04:49:05;96052.69;;;5.17;100.00
38285;BME280;24088;42.664;23.354;2022-12-18T04:50:07;96071.47;;;5.03;100.00
38285;BME280;24088;42.664;23.354;2022-12-18T04:51:07;96067.88;;;4.99;100.00
38285;BME280;24088;42.664;23.354;2022-12-18T04:52:09;96071.69;;;4.94;100.00
38285;BME280;24088;42.664;23.354;2022-12-18T04:53:09;96074.59;;;5.05;100.00
38285;BME280;24088;42.664;23.354;2022-12-18T04:54:11;96071.38;;;4.99;100.00
38285;BME280;24088;42.664;23.354;2022-12-18T04:55:11;96071.75;;;4.98;100.00
38285;BME280;24088;42.664;23.354;2022-12-18T04:56:14;96069.03;;;4.98;100.00
38285;BME280;24088;42.664;23.354;2022-12-18T04:57:14;96085.94;;;5.07;100.00
38285;BME280;24088;42.664;23.354;2022-12-18T04:58:18;96076.53;;;5.05;100.00
38285;BME280;24088;42.664;23.354;2022-12-18T04:59:18;96076.84;;;4.99;100.00
38285;BME280;24088;42.664;23.354;2022-12-18T05:00:20;96084.78;;;4.89;100.00
38285;BME280;24088;42.664;23.354;2022-12-18T05:01:21;96083.91;;;4.85;100.00
38285;BME280;24088;42.664;23.354;2022-12-18T05:02:23;96081.06;;;4.97;100.00
38285;BME280;24088;42.664;23.354;2022-12-18T05:03:24;96080.19;;;4.93;100.00
38285;BME280;24088;42.664;23.354;2022-12-18T05:04:25;96067.81;;;4.95;100.00
38285;BME280;24088;42.664;23.354;2022-12-18T05:05:26;96077.31;;;4.86;100.00
38285;BME280;24088;42.664;23.354;2022-12-18T05:06:27;96078.13;;;5.06;100.00
38285;BME280;24088;42.664;23.354;2022-12-18T05:07:28;96076.03;;;4.99;100.00
38285;BME280;24088;42.664;23.354;2022-12-18T05:08:30;96087.13;;;4.90;100.00
38285;BME280;24088;42.664;23.354;2022-12-18T05:09:30;96083.75;;;4.77;100.00
38285;BME280;24088;42.664;23.354;2022-12-18T05:10:32;96094.44;;;4.86;100.00
38285;BME280;24088;42.664;23.354;2022-12-18T05:11:32;96087.50;;;4.89;100.00
38285;BME280;24088;42.664;23.354;2022-12-18T05:12:34;96094.16;;;4.91;100.00
38285;BME280;24088;42.664;23.354;2022-12-18T05:13:55;96095.22;;;4.87;100.00
38285;BME280;24088;42.664;23.354;2022-12-18T05:14:56;96102.84;;;4.97;100.00
38285;BME280;24088;42.664;23.354;2022-12-18T05:15:57;96093.81;;;5.12;100.00
38285;BME280;24088;42.664;23.354;2022-12-18T05:16:59;96100.69;;;5.25;100.00
38285;BME280;24088;42.664;23.354;2022-12-18T05:18:01;96102.47;;;5.18;100.00
38285;BME280;24088;42.664;23.354;2022-12-18T05:19:03;96103.88;;;4.92;100.00
38285;BME280;24088;42.664;23.354;2022-12-18T05:20:04;96108.31;;;4.81;100.00
38285;BME280;24088;42.664;23.354;2022-12-18T05:21:06;96107.00;;;4.75;100.00
38285;BME280;24088;42.664;23.354;2022-12-18T05:22:06;96111.75;;;4.78;100.00
38285;BME280;24088;42.664;23.354;2022-12-18T05:23:08;96114.31;;;5.06;100.00
38285;BME280;24088;42.664;23.354;2022-12-18T05:24:08;96121.91;;;4.81;100.00
38285;BME280;24088;42.664;23.354;2022-12-18T05:25:10;96114.19;;;5.18;100.00
38285;BME280;24088;42.664;23.354;2022-12-18T05:26:11;96120.41;;;4.84;100.00
38285;BME280;24088;42.664;23.354;2022-12-18T05:27:15;96117.38;;;4.69;100.00